createdAt,value
2024-01-08T00:04:28.647Z,6.23
2024-01-08T00:09:30.127Z,6.05
2024-01-08T00:14:31.734Z,5.88
2024-01-08T00:19:33.099Z,5.68
2024-01-08T00:24:34.495Z,5.30
2024-01-08T00:29:35.910Z,6.33
2024-01-08T00:34:37.733Z,5.70
2024-01-08T00:39:39.256Z,6.47
2024-01-08T00:44:40.621Z,7.63
2024-01-08T00:49:41.963Z,6.13
2024-01-08T00:54:43.379Z,6.00
2024-01-08T00:59:44.741Z,6.90
2024-01-08T01:04:46.221Z,6.20
2024-01-08T01:09:47.681Z,8.57
2024-01-08T01:14:48.992Z,6.45
2024-01-08T01:19:50.357Z,6.73
2024-01-08T01:24:51.685Z,6.10
2024-01-08T01:29:53.054Z,6.30
2024-01-08T01:34:54.446Z,7.13
2024-01-08T01:39:56.849Z,5.15
2024-01-08T01:44:58.357Z,6.10
2024-01-08T01:50:00.533Z,6.72
2024-01-08T01:55:02.295Z,5.97
2024-01-08T02:00:04.342Z,6.03
2024-01-08T02:05:05.817Z,7.60
2024-01-08T02:10:07.954Z,6.10
2024-01-08T02:15:09.585Z,6.05
2024-01-08T02:20:11.109Z,6.55
2024-01-08T02:25:13.319Z,6.43
2024-01-08T02:30:14.822Z,5.90
2024-01-08T02:35:16.278Z,6.77
2024-01-08T02:40:18.453Z,6.63
2024-01-08T02:45:19.838Z,6.35
2024-01-08T02:50:21.320Z,6.95
2024-01-08T02:55:22.720Z,6.22
2024-01-08T03:00:24.108Z,6.27
2024-01-08T03:05:26.058Z,7.20
2024-01-08T03:10:27.434Z,7.50
2024-01-08T03:15:28.889Z,5.78
2024-01-08T03:20:30.291Z,8.07
2024-01-08T03:25:31.644Z,7.30
2024-01-08T03:30:33.057Z,6.72
2024-01-08T03:35:34.563Z,6.40
2024-01-08T03:40:36.084Z,6.20
2024-01-08T03:45:37.511Z,6.90
2024-01-08T03:50:39.017Z,6.73
2024-01-08T03:55:40.393Z,6.10
2024-01-08T04:00:41.775Z,5.70
2024-01-08T04:05:43.154Z,6.22
2024-01-08T04:10:44.964Z,5.05
2024-01-08T04:15:46.292Z,5.40
2024-01-08T04:20:47.653Z,5.97
2024-01-08T04:25:49.148Z,6.45
2024-01-08T04:30:50.567Z,6.20
2024-01-08T04:35:51.935Z,5.93
2024-01-08T04:40:53.380Z,5.67
2024-01-08T04:45:54.700Z,5.88
2024-01-08T04:50:56.052Z,5.93
2024-01-08T04:56:00.102Z,6.57
2024-01-08T05:01:01.489Z,5.13
2024-01-08T05:06:02.903Z,5.73
2024-01-08T05:11:04.914Z,5.97
2024-01-08T05:16:06.935Z,6.57
2024-01-08T05:21:09.044Z,6.95
2024-01-08T05:26:10.514Z,8.00
2024-01-08T05:31:11.994Z,6.07
2024-01-08T05:36:13.352Z,6.45
2024-01-08T05:41:15.971Z,8.48
2024-01-08T05:46:18.351Z,6.20
2024-01-08T05:51:19.764Z,6.65
2024-01-08T05:56:21.165Z,7.97
2024-01-08T06:01:25.466Z,10.23
2024-01-08T06:06:27.018Z,6.43
2024-01-08T06:11:28.410Z,6.47
2024-01-08T06:16:36.224Z,6.43
2024-01-08T06:21:37.565Z,6.47
2024-01-08T06:26:39.351Z,6.95
2024-01-08T06:31:40.925Z,5.85
2024-01-08T06:36:42.249Z,6.97
2024-01-08T06:41:44.057Z,6.30
2024-01-08T06:46:45.414Z,6.47
2024-01-08T06:51:46.865Z,7.15
2024-01-08T06:56:48.270Z,7.65
2024-01-08T07:01:52.630Z,8.00
2024-01-08T07:06:54.203Z,6.68
2024-01-08T07:11:55.541Z,7.70
2024-01-08T07:16:56.899Z,7.13
2024-01-08T07:21:58.294Z,8.68
2024-01-08T07:26:59.666Z,7.25
2024-01-08T07:32:01.117Z,7.72
2024-01-08T07:37:02.556Z,8.37
2024-01-08T07:42:03.955Z,8.20
2024-01-08T07:47:05.322Z,7.82
2024-01-08T07:52:07.099Z,7.05
2024-01-08T07:57:11.521Z,7.18
2024-01-08T08:02:13.558Z,7.37
2024-01-08T08:07:15.015Z,8.98
2024-01-08T08:12:16.578Z,7.22
2024-01-08T08:17:18.170Z,11.45
2024-01-08T08:22:20.104Z,8.23
2024-01-08T08:27:21.762Z,7.67
2024-01-08T08:32:23.431Z,7.43
2024-01-08T08:37:39.549Z,8.82
2024-01-08T08:42:46.116Z,7.88
2024-01-08T08:47:47.675Z,9.95
2024-01-08T08:52:50.344Z,7.37
2024-01-08T08:57:51.738Z,8.45
2024-01-08T09:02:53.997Z,7.00
2024-01-08T09:07:55.546Z,8.23
2024-01-08T09:12:57.010Z,8.13
2024-01-08T09:17:58.431Z,8.13
2024-01-08T09:23:00.143Z,7.65
2024-01-08T09:28:01.861Z,10.57
2024-01-08T09:33:03.548Z,9.02
2024-01-08T09:38:04.983Z,9.10
2024-01-08T09:43:07.541Z,8.93
2024-01-08T09:48:10.430Z,10.27
2024-01-08T09:53:11.820Z,10.05
2024-01-08T09:58:14.488Z,9.55
2024-01-08T10:03:15.836Z,9.50
2024-01-08T10:08:17.576Z,13.00
2024-01-08T10:13:19.273Z,10.60
2024-01-08T10:18:20.934Z,11.48
2024-01-08T10:23:25.574Z,10.63
2024-01-08T10:28:27.102Z,9.27
2024-01-08T10:33:29.529Z,9.10
2024-01-08T10:38:32.397Z,9.45
2024-01-08T10:43:33.943Z,8.57
2024-01-08T10:48:42.410Z,9.68
2024-01-08T10:53:47.797Z,11.75
2024-01-08T10:58:52.922Z,11.33
2024-01-08T11:03:54.362Z,9.63
2024-01-08T11:08:58.796Z,10.45
2024-01-08T11:14:00.410Z,8.07
2024-01-08T11:19:20.381Z,9.13
2024-01-08T11:24:21.858Z,9.03
2024-01-08T11:29:23.322Z,7.38
2024-01-08T11:34:33.658Z,7.18
2024-01-08T11:39:39.554Z,7.78
2024-01-08T11:44:41.234Z,7.82
2024-01-08T11:49:42.713Z,10.60
2024-01-08T11:54:49.538Z,9.18
2024-01-08T11:59:50.991Z,8.23
2024-01-08T12:04:53.786Z,8.15
2024-01-08T12:09:55.938Z,10.35
2024-01-08T12:14:57.269Z,10.20
2024-01-08T12:19:59.260Z,7.75
2024-01-08T12:25:01.346Z,9.18
2024-01-08T12:30:04.938Z,11.23
2024-01-08T12:35:11.329Z,9.27
2024-01-08T12:40:14.483Z,11.80
2024-01-08T12:45:15.994Z,16.67
2024-01-08T12:50:17.540Z,12.70
2024-01-08T12:55:18.951Z,8.70
2024-01-08T13:00:20.327Z,10.73
2024-01-08T13:05:21.921Z,10.87
2024-01-08T13:10:25.162Z,10.65
2024-01-08T13:15:26.625Z,9.77
2024-01-08T13:20:30.024Z,9.57
2024-01-08T13:25:31.558Z,10.07
2024-01-08T13:30:33.006Z,11.20
2024-01-08T13:35:34.488Z,9.80
2024-01-08T13:40:35.848Z,15.88
2024-01-08T13:45:37.177Z,9.13
2024-01-08T13:50:39.332Z,11.45
2024-01-08T13:55:40.881Z,11.37
2024-01-08T14:00:42.587Z,11.30
2024-01-08T14:05:44.066Z,12.20
2024-01-08T14:10:45.848Z,10.25
2024-01-08T14:15:47.277Z,12.75
2024-01-08T14:20:49.173Z,9.70
2024-01-08T14:25:50.637Z,11.18
2024-01-08T14:30:52.064Z,13.43
2024-01-08T14:35:53.538Z,11.70
2024-01-08T14:40:55.005Z,9.77
2024-01-08T14:45:56.314Z,11.30
2024-01-08T14:50:57.659Z,11.85
2024-01-08T14:55:59.721Z,10.88
2024-01-08T15:01:01.285Z,12.85
2024-01-08T15:06:03.030Z,12.68
2024-01-08T15:11:07.858Z,12.63
2024-01-08T15:16:09.882Z,11.07
2024-01-08T15:21:11.221Z,14.98
2024-01-08T15:26:12.733Z,11.95
2024-01-08T15:31:17.966Z,13.18
2024-01-08T15:36:20.584Z,13.30
2024-01-08T15:41:22.018Z,13.43
2024-01-08T15:46:23.354Z,13.23
2024-01-08T15:51:25.858Z,14.35
2024-01-08T15:56:27.269Z,12.48
2024-01-08T16:01:28.749Z,16.10
2024-01-08T16:06:30.242Z,14.25
2024-01-08T16:11:31.905Z,14.13
2024-01-08T16:16:33.280Z,15.13
2024-01-08T16:21:34.703Z,14.13
2024-01-08T16:26:36.322Z,15.47
2024-01-08T16:31:37.869Z,14.18
2024-01-08T16:36:39.821Z,19.10
2024-01-08T16:41:42.499Z,14.88
2024-01-08T16:46:43.875Z,16.67
2024-01-08T16:51:45.253Z,17.80
2024-01-08T16:56:46.672Z,16.63
2024-01-08T17:01:48.039Z,15.80
2024-01-08T17:06:49.387Z,18.60
2024-01-08T17:11:50.905Z,18.10
2024-01-08T17:16:52.672Z,15.23
2024-01-08T17:21:53.969Z,15.85
2024-01-08T17:26:55.282Z,18.67
2024-01-08T17:31:56.879Z,17.45
2024-01-08T17:37:00.008Z,17.23
2024-01-08T17:42:01.361Z,16.67
2024-01-08T17:47:02.734Z,15.70
2024-01-08T17:52:05.358Z,15.75
2024-01-08T17:57:06.738Z,16.02
2024-01-08T18:02:09.631Z,21.33
2024-01-08T18:07:11.332Z,23.70
2024-01-08T18:12:13.295Z,19.10
2024-01-08T18:17:16.464Z,18.17
2024-01-08T18:22:18.104Z,16.08
2024-01-08T18:27:19.454Z,21.05
2024-01-08T18:32:20.839Z,21.07
2024-01-08T18:37:22.853Z,20.17
2024-01-08T18:42:25.089Z,17.25
2024-01-08T18:47:31.717Z,20.25
2024-01-08T18:52:33.223Z,20.13
2024-01-08T18:57:34.725Z,19.80
2024-01-08T19:02:36.154Z,17.75
2024-01-08T19:07:37.589Z,19.15
2024-01-08T19:12:38.970Z,19.60
2024-01-08T19:17:41.522Z,18.52
2024-01-08T19:22:44.039Z,20.30
2024-01-08T19:27:45.525Z,20.35
2024-01-08T19:32:46.995Z,20.17
2024-01-08T19:37:48.534Z,18.80
2024-01-08T19:42:49.873Z,16.98
2024-01-08T19:47:51.237Z,16.47
2024-01-08T19:52:52.580Z,19.42
2024-01-08T19:57:53.997Z,21.05
2024-01-08T20:02:55.419Z,15.32
2024-01-08T20:07:57.115Z,19.13
2024-01-08T20:13:00.329Z,19.87
2024-01-08T20:18:02.742Z,17.10
2024-01-08T20:23:04.329Z,17.58
2024-01-08T20:28:08.552Z,17.13
2024-01-08T20:33:10.020Z,16.25
2024-01-08T20:38:11.416Z,18.80
2024-01-08T20:43:12.725Z,16.17
2024-01-08T20:48:14.252Z,19.50
2024-01-08T20:53:16.324Z,19.83
2024-01-08T20:58:17.870Z,21.95
2024-01-08T21:03:21.197Z,16.47
2024-01-08T21:08:22.683Z,16.20
2024-01-08T21:13:24.481Z,18.25
2024-01-08T21:18:25.843Z,17.85
2024-01-08T21:23:27.273Z,17.92
2024-01-08T21:28:28.624Z,19.87
2024-01-08T21:33:30.100Z,17.15
2024-01-08T21:38:36.974Z,18.27
2024-01-08T21:43:38.375Z,18.35
2024-01-08T21:48:42.632Z,20.20
2024-01-08T21:53:44.217Z,18.60
2024-01-08T21:58:47.951Z,20.25
2024-01-08T22:03:49.402Z,20.08
2024-01-08T22:08:50.850Z,17.45
2024-01-08T22:13:52.287Z,19.42
2024-01-08T22:18:53.918Z,18.33
2024-01-08T22:23:55.326Z,19.77
2024-01-08T22:28:56.798Z,20.00
2024-01-08T22:33:58.304Z,17.70
2024-01-08T22:38:59.756Z,22.02
2024-01-08T22:44:09.498Z,19.57
2024-01-08T22:49:16.153Z,19.70
2024-01-08T22:54:17.472Z,21.50
2024-01-08T22:59:21.032Z,20.20
2024-01-08T23:04:22.778Z,20.85
2024-01-08T23:09:24.206Z,21.97
2024-01-08T23:14:25.673Z,18.65
2024-01-08T23:19:27.116Z,19.52
2024-01-08T23:24:30.023Z,18.30
2024-01-08T23:29:31.357Z,20.25
2024-01-08T23:34:32.754Z,19.83
2024-01-08T23:39:34.397Z,20.48
2024-01-08T23:44:38.195Z,20.92
2024-01-08T23:49:39.621Z,19.40
2024-01-08T23:54:41.408Z,21.50
2024-01-08T23:59:42.743Z,21.57
